Terminal Aerodrome Forecast
Issued by NWS Cleveland, OH

Home | Current Version | Previous Version | Text Only | Print | Product List | Glossary On
Versions: 1 2 3 4 5 6 7 8 9 10 11 12 13 14 15 16
000
FTUS41 KCLE 011100
TAFYNG
TAF
KYNG 011123Z 0112/0212 14005KT 1/2SM SN FZFG VV007
     FM012200 29006KT 1 1/2SM -SN OVC010
     FM020500 28006KT 4SM -SN OVC015=

USA.gov is the U.S. government's official web portal to all federal, state and local government web resources and services.